Airfield :







YOU CAN JOIN US ON...

 
LOGIN :

Register | Disclaimer

   EN    FR    IT 

 









Legend :    VFR   Marginal VFR   IFR   Intensive IFR   Very Intensive IFR
Visi :
Ceiling :
>= 8 km
>= 3000ft
5 to 8 km
1000 to 3000 ft
1500m to 5 km
500 to 1000 ft
800 to 1500m
200 to 500 ft
< 800m
< 200 ft
Symbols :   Thunderstorms  Fog  Heavy snow  Heavy precipitations  Wind > 20 kt






- Airport Elevation : 203 ft
- IATA code : YQY


CYQY - Sydney

CURRENT METAR :
  • 301100Z 21010G18KT 7SM -RA OVC020 05/05 A2997 RMK SC8 SLP155

EXPIRED METARs :
  • 301054Z 21009KT 7SM -RA OVC026 05/05 A2997 RMK SC8 SLP155
  • 301000Z 21014KT 9SM -RA FEW010 SCT022 OVC043 05/05 A2997 RMK ST1SC3SC4 SLP154
  • 300946Z 21011G18KT 10SM -RA SCT010 BKN014 OVC022 05/05 A2997 RMK NS3SC3SC2 SLP153
  • 300900Z 21010G17KT 10SM -RA OVC005 05/04 A2999 RMK NS8 SLP161

TAF AMD TAF CYQY
Valid from the 30 at 10:00 until the 30 at 18:00 UTC


301027Z 3010/3018 21012G22KT 3SM -RA BR BKN012 OVC040
TEMPO 3010/3013 P6SM -RA OVC040
FM301300 30012G22KT 4SM -SHRA BKN015
TEMPO 3013/3016 P6SM -RA BKN025
FM301600 30010KT P6SM SCT020
TEMPO 3016/3018 BKN020 RMK NXT FCST BY 301200Z
CZQM FIR / North America



MET'MAP, your aeronautical weather chart ! - Copyright ORBIFLY December 2007 - Disclaimer

ORBIFLY MET'MAP TEAM :

Programming & Development : Alexandra Zaïnal
Original concept : Baudouin d'Aumeries
Technical & hardware support : Manuel Goepfert
Assistance : Marc-Olivier Méhu




SOURCES & CREDITS :

   NOAA